Time;durP1;ratioP1;P1;durP2;ratioP2;P2;SDS_P1;SDS_P2;PMS_P1;PMS_P2;Temp;Humidity;BMP_temperature;BMP_pressure;BME280_temperature;BME280_humidity;BME280_pressure;Samples;Min_cycle;Max_cycle;Signal;HPM_P1;HPM_P2
2023/09/24 00:02:10;;;;;;;;;1.00;1.00;;;;;;;;5075102;28;9721;-79
2023/09/24 00:04:39;;;;;;;;;2.50;2.50;;;;;;;;5068761;28;9751;-78
2023/09/24 00:07:07;;;;;;;;;3.00;2.25;;;;;;;;5073444;28;9934;-79
2023/09/24 00:09:40;;;;;;;;;2.50;2.50;;;;;;;;5071395;28;9855;-77
2023/09/24 00:12:10;;;;;;;;;2.75;2.75;;;;;;;;5072021;28;10043;-83
2023/09/24 00:14:37;;;;;;;;;3.00;3.00;;;;;;;;5071716;28;9865;-77
2023/09/24 00:17:05;;;;;;;;;5.25;3.75;;;;;;;;5059165;28;9948;-77
2023/09/24 00:19:35;;;;;;;;;2.75;2.75;;;;;;;;5062279;28;9939;-80
2023/09/24 00:22:04;;;;;;;;;3.50;3.50;;;;;;;;5069680;28;10017;-77
2023/09/24 00:24:32;;;;;;;;;5.25;3.25;;;;;;;;5070967;28;10048;-77
2023/09/24 00:27:00;;;;;;;;;2.50;2.50;;;;;;;;5070708;28;10016;-77
2023/09/24 00:29:28;;;;;;;;;2.00;2.00;;;;;;;;5070766;28;10019;-81
2023/09/24 00:31:55;;;;;;;;;3.00;3.00;;;;;;;;5071807;28;9951;-81
2023/09/24 00:34:22;;;;;;;;;3.00;3.00;;;;;;;;5066700;28;10027;-76
2023/09/24 00:36:50;;;;;;;;;3.00;3.00;;;;;;;;5072894;28;9904;-76
2023/09/24 00:39:17;;;;;;;;;2.00;2.00;;;;;;;;5064221;28;10062;-76
2023/09/24 00:41:46;;;;;;;;;5.00;5.00;;;;;;;;5071438;28;9940;-82
2023/09/24 00:44:15;;;;;;;;;4.00;3.00;;;;;;;;5072677;28;10118;-77
2023/09/24 00:46:44;;;;;;;;;2.00;2.00;;;;;;;;5069069;28;10881;-79
2023/09/24 00:49:13;;;;;;;;;3.25;3.25;;;;;;;;5070071;28;10413;-82
2023/09/24 00:51:41;;;;;;;;;2.00;2.00;;;;;;;;5065505;28;10005;-77
2023/09/24 00:54:09;;;;;;;;;2.25;2.25;;;;;;;;5064351;28;10112;-75
2023/09/24 00:56:37;;;;;;;;;3.00;3.00;;;;;;;;5070538;28;9911;-77
2023/09/24 00:59:06;;;;;;;;;6.00;2.75;;;;;;;;5057775;28;10064;-76
2023/09/24 01:01:35;;;;;;;;;6.00;2.25;;;;;;;;5069578;28;10126;-76
2023/09/24 01:04:04;;;;;;;;;3.00;3.00;;;;;;;;5066749;28;10036;-76
2023/09/24 01:06:31;;;;;;;;;3.75;2.75;;;;;;;;5071087;28;10219;-77
2023/09/24 01:08:59;;;;;;;;;3.00;3.00;;;;;;;;5070383;28;9948;-77
2023/09/24 01:11:27;;;;;;;;;3.75;3.75;;;;;;;;5069772;28;10077;-82
2023/09/24 01:13:54;;;;;;;;;2.00;2.00;;;;;;;;5059858;28;10085;-78
2023/09/24 01:16:21;;;;;;;;;4.50;2.75;;;;;;;;5069032;28;10946;-81
2023/09/24 01:18:53;;;;;;;;;5.25;3.00;;;;;;;;5069362;28;10104;-77
2023/09/24 01:21:20;;;;;;;;;4.50;3.50;;;;;;;;5069717;28;10183;-76
2023/09/24 01:23:49;;;;;;;;;1.00;1.00;;;;;;;;5057771;28;10544;-77
2023/09/24 01:26:18;;;;;;;;;3.25;3.25;;;;;;;;5069322;28;10963;-76
2023/09/24 01:28:47;;;;;;;;;2.75;2.75;;;;;;;;5059095;28;10214;-76
2023/09/24 01:31:15;;;;;;;;;2.00;2.00;;;;;;;;5071208;28;9988;-77
2023/09/24 01:33:43;;;;;;;;;2.00;2.00;;;;;;;;5065433;28;10028;-76
2023/09/24 01:36:13;;;;;;;;;3.00;3.00;;;;;;;;5062684;28;10112;-80
2023/09/24 01:38:41;;;;;;;;;3.25;2.00;;;;;;;;5071131;28;10235;-78
2023/09/24 01:41:10;;;;;;;;;3.00;3.00;;;;;;;;5076199;28;10156;-76
2023/09/24 01:43:39;;;;;;;;;2.00;2.00;;;;;;;;5072976;28;10234;-76
2023/09/24 01:46:08;;;;;;;;;2.25;2.25;;;;;;;;5068023;28;10220;-76
2023/09/24 01:48:35;;;;;;;;;3.50;3.50;;;;;;;;5060330;28;10091;-75
2023/09/24 01:51:09;;;;;;;;;3.00;3.00;;;;;;;;5071149;28;10222;-80
2023/09/24 01:53:38;;;;;;;;;1.00;1.00;;;;;;;;5069519;28;10099;-77
2023/09/24 01:56:07;;;;;;;;;2.25;2.25;;;;;;;;5069069;28;10208;-78
2023/09/24 01:58:37;;;;;;;;;4.00;2.50;;;;;;;;5065629;28;10265;-83
2023/09/24 02:01:05;;;;;;;;;3.00;3.00;;;;;;;;5062989;28;10100;-79
2023/09/24 02:03:35;;;;;;;;;1.00;1.00;;;;;;;;5069266;28;10435;-77
2023/09/24 02:06:03;;;;;;;;;3.00;3.00;;;;;;;;5063787;28;10170;-80
2023/09/24 02:08:32;;;;;;;;;2.00;2.00;;;;;;;;5062013;28;10307;-77
2023/09/24 02:10:59;;;;;;;;;4.00;4.00;;;;;;;;5056509;28;10424;-76
2023/09/24 02:13:27;;;;;;;;;2.00;2.00;;;;;;;;5061781;28;10351;-76
2023/09/24 02:15:56;;;;;;;;;2.25;2.25;;;;;;;;5068026;28;10377;-77
2023/09/24 02:18:25;;;;;;;;;4.00;3.00;;;;;;;;5063778;28;10250;-77
2023/09/24 02:20:52;;;;;;;;;3.00;3.00;;;;;;;;5075752;28;10492;-76
2023/09/24 02:23:19;;;;;;;;;3.00;3.00;;;;;;;;5068693;28;10420;-77
2023/09/24 02:25:47;;;;;;;;;2.00;2.00;;;;;;;;5068755;28;10398;-76
2023/09/24 02:28:17;;;;;;;;;3.00;3.00;;;;;;;;5067467;28;10306;-82
2023/09/24 02:30:44;;;;;;;;;3.75;3.75;;;;;;;;5057829;28;10350;-77
2023/09/24 02:33:13;;;;;;;;;2.50;2.50;;;;;;;;5067333;28;10490;-78
2023/09/24 02:35:43;;;;;;;;;2.00;2.00;;;;;;;;5069789;28;10439;-79
2023/09/24 02:38:10;;;;;;;;;2.00;2.00;;;;;;;;5063163;28;10523;-76
2023/09/24 02:40:40;;;;;;;;;3.00;3.00;;;;;;;;5060248;28;11172;-77
2023/09/24 02:43:07;;;;;;;;;3.00;3.00;;;;;;;;5062700;28;10315;-77
2023/09/24 02:45:34;;;;;;;;;4.00;4.00;;;;;;;;5061516;28;10544;-77
2023/09/24 02:48:04;;;;;;;;;2.25;2.25;;;;;;;;5067518;28;10509;-79
2023/09/24 02:50:32;;;;;;;;;4.00;3.50;;;;;;;;5076046;28;10468;-80
2023/09/24 02:53:02;;;;;;;;;3.50;3.50;;;;;;;;5068882;28;10493;-77
2023/09/24 02:55:31;;;;;;;;;3.00;3.00;;;;;;;;5068560;28;10391;-76
2023/09/24 02:57:58;;;;;;;;;2.75;2.75;;;;;;;;5066627;28;10364;-77
2023/09/24 03:00:33;;;;;;;;;2.00;2.00;;;;;;;;5064948;28;10347;-77
2023/09/24 03:03:00;;;;;;;;;3.00;3.00;;;;;;;;5068322;28;10470;-76
2023/09/24 03:05:29;;;;;;;;;1.50;1.50;;;;;;;;5068537;28;10612;-76
2023/09/24 03:07:59;;;;;;;;;2.50;2.50;;;;;;;;5069143;28;10453;-76
2023/09/24 03:10:29;;;;;;;;;2.50;2.50;;;;;;;;5068604;28;11216;-87
2023/09/24 03:12:57;;;;;;;;;4.75;4.00;;;;;;;;5065269;28;10461;-77
2023/09/24 03:15:25;;;;;;;;;5.00;4.00;;;;;;;;5066400;28;10363;-76
2023/09/24 03:17:52;;;;;;;;;4.00;4.00;;;;;;;;5066530;28;10507;-76
2023/09/24 03:20:19;;;;;;;;;3.00;3.00;;;;;;;;5060937;28;10443;-76
2023/09/24 03:22:49;;;;;;;;;2.00;2.00;;;;;;;;5068569;28;10549;-78
2023/09/24 03:25:19;;;;;;;;;2.75;2.75;;;;;;;;5069859;28;10378;-76
2023/09/24 03:27:46;;;;;;;;;5.00;5.00;;;;;;;;5064587;28;10599;-76
2023/09/24 03:30:17;;;;;;;;;3.75;3.75;;;;;;;;5068234;28;10585;-76
2023/09/24 03:32:44;;;;;;;;;4.00;2.75;;;;;;;;5070507;28;10598;-76
2023/09/24 03:35:14;;;;;;;;;3.75;3.75;;;;;;;;5075482;28;10384;-80
2023/09/24 03:37:43;;;;;;;;;2.50;2.50;;;;;;;;5073166;28;11305;-77
2023/09/24 03:40:13;;;;;;;;;3.00;3.00;;;;;;;;5072529;28;10307;-80
2023/09/24 03:42:45;;;;;;;;;3.25;3.00;;;;;;;;5065032;28;10479;-76
2023/09/24 03:45:13;;;;;;;;;2.25;2.25;;;;;;;;5063437;28;10308;-77
2023/09/24 03:47:41;;;;;;;;;2.25;2.25;;;;;;;;5065695;28;10554;-85
2023/09/24 03:50:13;;;;;;;;;3.25;3.25;;;;;;;;5069866;28;10347;-76
2023/09/24 03:52:44;;;;;;;;;3.00;3.00;;;;;;;;5074598;28;10386;-83
2023/09/24 03:55:11;;;;;;;;;3.00;3.00;;;;;;;;5062824;28;11248;-76
2023/09/24 03:57:40;;;;;;;;;3.00;1.75;;;;;;;;5067260;28;11085;-76
2023/09/24 04:00:15;;;;;;;;;4.00;4.00;;;;;;;;5053514;28;10400;-76
2023/09/24 04:02:43;;;;;;;;;3.00;3.00;;;;;;;;5070572;28;10445;-76
2023/09/24 04:05:14;;;;;;;;;2.50;2.50;;;;;;;;5067391;28;10400;-77
2023/09/24 04:07:42;;;;;;;;;4.75;4.75;;;;;;;;5072668;28;10239;-80
2023/09/24 04:10:14;;;;;;;;;2.50;2.00;;;;;;;;5073236;28;10380;-78
2023/09/24 04:12:43;;;;;;;;;4.00;4.00;;;;;;;;5059497;28;10300;-77
2023/09/24 04:15:12;;;;;;;;;3.75;3.75;;;;;;;;5070235;28;10467;-79
2023/09/24 04:17:41;;;;;;;;;4.25;3.00;;;;;;;;5071446;28;10480;-77
2023/09/24 04:20:14;;;;;;;;;5.00;3.00;;;;;;;;5070657;28;10286;-76
2023/09/24 04:22:42;;;;;;;;;4.00;2.00;;;;;;;;5070615;28;10315;-87
2023/09/24 04:25:09;;;;;;;;;4.25;2.75;;;;;;;;5069954;28;10473;-76
2023/09/24 04:27:38;;;;;;;;;4.00;4.00;;;;;;;;5070090;28;10498;-76
2023/09/24 04:30:09;;;;;;;;;3.75;3.75;;;;;;;;5060210;28;10517;-76
2023/09/24 04:32:39;;;;;;;;;1.25;1.25;;;;;;;;5063504;28;10476;-75
2023/09/24 04:35:10;;;;;;;;;3.00;3.00;;;;;;;;5066779;28;10438;-76
2023/09/24 04:37:38;;;;;;;;;2.75;2.75;;;;;;;;5064094;28;10529;-76
2023/09/24 04:40:10;;;;;;;;;2.00;2.00;;;;;;;;5067767;28;10523;-76
2023/09/24 04:42:38;;;;;;;;;2.50;2.50;;;;;;;;5069753;28;10471;-76
2023/09/24 04:45:07;;;;;;;;;3.25;2.00;;;;;;;;5063217;28;10468;-79
2023/09/24 04:47:34;;;;;;;;;3.25;3.25;;;;;;;;5069598;28;10508;-75
2023/09/24 04:50:10;;;;;;;;;4.50;3.25;;;;;;;;5069910;28;10715;-76
2023/09/24 04:52:41;;;;;;;;;3.00;3.00;;;;;;;;5068502;28;10582;-85
2023/09/24 04:55:12;;;;;;;;;3.75;2.75;;;;;;;;5076191;28;10699;-76
2023/09/24 04:57:41;;;;;;;;;3.75;2.75;;;;;;;;5068298;28;10601;-78
2023/09/24 05:00:13;;;;;;;;;5.00;3.00;;;;;;;;5063776;28;11482;-83
2023/09/24 05:02:40;;;;;;;;;2.00;2.00;;;;;;;;5064332;28;10625;-81
2023/09/24 05:05:12;;;;;;;;;3.00;3.00;;;;;;;;5064176;28;10527;-75
2023/09/24 05:07:40;;;;;;;;;3.00;3.00;;;;;;;;5062565;28;10761;-76
2023/09/24 05:10:09;;;;;;;;;3.25;3.25;;;;;;;;5066996;28;10678;-73
2023/09/24 05:12:36;;;;;;;;;4.00;4.00;;;;;;;;5073969;28;10708;-72
2023/09/24 05:15:04;;;;;;;;;3.00;3.00;;;;;;;;5067171;28;10659;-73
2023/09/24 05:17:35;;;;;;;;;3.00;3.00;;;;;;;;5073494;28;10789;-78
2023/09/24 05:20:04;;;;;;;;;3.00;3.00;;;;;;;;5072182;28;10783;-73
2023/09/24 05:22:35;;;;;;;;;6.75;3.00;;;;;;;;5072863;28;10549;-72
2023/09/24 05:25:05;;;;;;;;;3.00;3.00;;;;;;;;5068998;28;10539;-69
2023/09/24 05:27:33;;;;;;;;;1.75;1.75;;;;;;;;5068769;28;10479;-69
2023/09/24 05:30:02;;;;;;;;;4.50;4.50;;;;;;;;5064362;28;10668;-72
2023/09/24 05:32:29;;;;;;;;;2.75;2.25;;;;;;;;5073687;28;10784;-69
2023/09/24 05:34:56;;;;;;;;;2.00;2.00;;;;;;;;5064538;28;10411;-69
2023/09/24 05:37:23;;;;;;;;;3.00;3.00;;;;;;;;5068464;28;10511;-70
2023/09/24 05:39:52;;;;;;;;;1.50;1.50;;;;;;;;5068701;28;10505;-70
2023/09/24 05:42:20;;;;;;;;;7.75;4.50;;;;;;;;5067141;28;10551;-71
2023/09/24 05:44:47;;;;;;;;;3.25;3.25;;;;;;;;5068515;28;10608;-69
2023/09/24 05:47:14;;;;;;;;;3.75;3.75;;;;;;;;5068362;28;10609;-72
2023/09/24 05:49:41;;;;;;;;;3.00;3.00;;;;;;;;5067896;28;10581;-70
2023/09/24 05:52:09;;;;;;;;;3.00;3.00;;;;;;;;5066369;28;10606;-73
2023/09/24 05:54:36;;;;;;;;;4.00;4.00;;;;;;;;5065286;28;10462;-70
2023/09/24 05:57:09;;;;;;;;;3.75;3.75;;;;;;;;5062208;28;10522;-69
2023/09/24 05:59:36;;;;;;;;;3.00;3.00;;;;;;;;5059144;28;11312;-70
2023/09/24 06:02:03;;;;;;;;;4.00;3.00;;;;;;;;5065285;28;10606;-70
2023/09/24 06:04:31;;;;;;;;;3.75;3.75;;;;;;;;5068231;28;10565;-72
2023/09/24 06:06:58;;;;;;;;;4.00;4.00;;;;;;;;5062588;28;10593;-70
2023/09/24 06:09:25;;;;;;;;;3.00;3.00;;;;;;;;5068268;28;10529;-69
2023/09/24 06:11:53;;;;;;;;;4.25;4.25;;;;;;;;5064830;28;10593;-73
2023/09/24 06:14:21;;;;;;;;;7.00;3.00;;;;;;;;5066582;28;10560;-72
2023/09/24 06:16:48;;;;;;;;;2.00;2.00;;;;;;;;5063214;28;10530;-70
2023/09/24 06:19:15;;;;;;;;;3.00;3.00;;;;;;;;5067940;28;10563;-69
2023/09/24 06:21:43;;;;;;;;;3.25;3.25;;;;;;;;5062746;28;10729;-70
2023/09/24 06:24:10;;;;;;;;;5.00;4.00;;;;;;;;5075765;28;10524;-69
2023/09/24 06:26:38;;;;;;;;;7.75;5.50;;;;;;;;5064438;28;10564;-72
2023/09/24 06:29:06;;;;;;;;;6.00;5.25;;;;;;;;5065770;28;10597;-72
2023/09/24 06:31:34;;;;;;;;;6.00;4.00;;;;;;;;5070040;28;10471;-69
2023/09/24 06:34:02;;;;;;;;;6.00;4.50;;;;;;;;5067010;28;10484;-69
2023/09/24 06:36:30;;;;;;;;;4.00;4.00;;;;;;;;5064603;28;10490;-74
2023/09/24 06:38:59;;;;;;;;;6.25;6.25;;;;;;;;5066650;28;10384;-84
2023/09/24 06:41:26;;;;;;;;;5.75;5.75;;;;;;;;5073242;28;11206;-71
2023/09/24 06:43:53;;;;;;;;;6.75;6.75;;;;;;;;5051873;28;10462;-70
2023/09/24 06:46:21;;;;;;;;;12.00;10.00;;;;;;;;5079751;28;10380;-69
2023/09/24 06:48:51;;;;;;;;;17.25;14.00;;;;;;;;5067742;28;10509;-70
2023/09/24 06:51:20;;;;;;;;;17.00;11.75;;;;;;;;5062986;28;10400;-69
2023/09/24 06:53:50;;;;;;;;;11.25;9.75;;;;;;;;5068581;28;10547;-69
2023/09/24 06:56:19;;;;;;;;;9.50;8.75;;;;;;;;5076730;28;10232;-73
2023/09/24 06:58:46;;;;;;;;;5.50;5.25;;;;;;;;5075390;28;10287;-69
2023/09/24 07:01:13;;;;;;;;;7.00;5.25;;;;;;;;5076119;28;10042;-69
2023/09/24 07:03:41;;;;;;;;;7.00;5.75;;;;;;;;5072292;28;10220;-80
2023/09/24 07:06:10;;;;;;;;;5.50;5.50;;;;;;;;5068835;28;10007;-77
2023/09/24 07:08:38;;;;;;;;;7.50;7.50;;;;;;;;5063817;28;10009;-74
2023/09/24 07:11:27;;;;;;;;;6.00;6.00;;;;;;;;5072059;28;10177;-82
2023/09/24 07:13:55;;;;;;;;;10.50;7.00;;;;;;;;5070225;28;10003;-71
2023/09/24 07:16:24;;;;;;;;;4.75;4.75;;;;;;;;5075090;28;10730;-69
2023/09/24 07:18:52;;;;;;;;;5.00;5.00;;;;;;;;5072517;28;10576;-69
2023/09/24 07:21:24;;;;;;;;;5.00;5.00;;;;;;;;5074292;28;9764;-69
2023/09/24 07:23:52;;;;;;;;;3.50;2.50;;;;;;;;5074808;28;9703;-69
2023/09/24 07:26:19;;;;;;;;;4.50;4.50;;;;;;;;5075551;28;9721;-73
2023/09/24 07:28:47;;;;;;;;;5.25;3.25;;;;;;;;5067073;28;9797;-69
2023/09/24 07:31:19;;;;;;;;;4.25;4.25;;;;;;;;5071683;28;9689;-77
2023/09/24 07:33:50;;;;;;;;;3.50;3.50;;;;;;;;5072498;28;9653;-69
2023/09/24 07:36:17;;;;;;;;;4.00;4.00;;;;;;;;5068800;28;9398;-70
2023/09/24 07:38:46;;;;;;;;;4.67;4.67;;;;;;;;5062413;28;10031;-70
2023/09/24 07:41:13;;;;;;;;;3.00;3.00;;;;;;;;5072132;28;9300;-70
2023/09/24 07:43:42;;;;;;;;;5.00;5.00;;;;;;;;5073232;28;9592;-70
2023/09/24 07:46:12;;;;;;;;;3.00;3.00;;;;;;;;5070085;28;9520;-69
2023/09/24 07:48:44;;;;;;;;;4.00;4.00;;;;;;;;5073374;28;9390;-69
2023/09/24 07:51:11;;;;;;;;;7.00;5.67;;;;;;;;5072830;28;9455;-69
2023/09/24 07:53:39;;;;;;;;;5.00;3.00;;;;;;;;5073913;28;9403;-69
2023/09/24 07:56:11;;;;;;;;;5.67;5.67;;;;;;;;5070306;28;9146;-74
2023/09/24 07:58:42;;;;;;;;;4.33;4.33;;;;;;;;5065495;28;9255;-74
2023/09/24 08:01:10;;;;;;;;;5.33;3.00;;;;;;;;5058198;28;9410;-78
2023/09/24 08:03:41;;;;;;;;;2.67;2.67;;;;;;;;5069563;28;9256;-73
2023/09/24 08:06:09;;;;;;;;;6.00;4.67;;;;;;;;5064414;28;8957;-72
2023/09/24 08:08:39;;;;;;;;;3.00;3.00;;;;;;;;5068106;28;9011;-71
2023/09/24 08:11:10;;;;;;;;;4.67;4.67;;;;;;;;5063583;28;8844;-75
2023/09/24 08:13:38;;;;;;;;;5.00;5.00;;;;;;;;5070236;28;9041;-70
2023/09/24 08:16:10;;;;;;;;;8.67;6.00;;;;;;;;5061166;28;8923;-75
2023/09/24 08:18:37;;;;;;;;;9.50;6.25;;;;;;;;5066269;28;8992;-70
2023/09/24 08:21:27;;;;;;;;;5.50;5.25;;;;;;;;5060158;28;9611;-70
2023/09/24 08:24:02;;;;;;;;;5.50;5.50;;;;;;;;5066854;28;8843;-69
2023/09/24 08:26:51;;;;;;;;;7.00;7.00;;;;;;;;5063575;28;8856;-73
2023/09/24 08:29:21;;;;;;;;;7.00;5.75;;;;;;;;5055225;28;8842;-70
2023/09/24 08:31:48;;;;;;;;;5.50;5.00;;;;;;;;5069534;28;8815;-72
2023/09/24 08:34:15;;;;;;;;;6.75;5.00;;;;;;;;5070251;28;8832;-70
2023/09/24 08:36:43;;;;;;;;;7.50;4.00;;;;;;;;5072866;28;8888;-74
2023/09/24 08:39:10;;;;;;;;;5.00;5.00;;;;;;;;5070122;28;8844;-70
2023/09/24 08:41:45;;;;;;;;;4.00;4.00;;;;;;;;5071697;28;8844;-75
2023/09/24 08:44:17;;;;;;;;;4.25;4.25;;;;;;;;5065356;28;8997;-73
2023/09/24 08:46:47;;;;;;;;;3.25;3.25;;;;;;;;5070606;28;8863;-83
2023/09/24 08:49:14;;;;;;;;;5.00;3.75;;;;;;;;5066234;28;8899;-79
2023/09/24 08:51:44;;;;;;;;;4.75;3.50;;;;;;;;5070221;28;8961;-75
2023/09/24 08:54:14;;;;;;;;;6.25;3.00;;;;;;;;5067698;28;8900;-82
2023/09/24 08:56:43;;;;;;;;;3.75;2.00;;;;;;;;5069683;28;9002;-71
2023/09/24 08:59:10;;;;;;;;;4.00;4.00;;;;;;;;5068128;28;8874;-78
2023/09/24 09:01:37;;;;;;;;;2.25;2.25;;;;;;;;5053172;28;8938;-79
2023/09/24 09:04:05;;;;;;;;;2.00;2.00;;;;;;;;5065542;28;8840;-70
2023/09/24 09:06:33;;;;;;;;;3.50;3.00;;;;;;;;5070455;28;8908;-76
2023/09/24 09:09:03;;;;;;;;;2.25;2.25;;;;;;;;5058257;28;8971;-82
2023/09/24 09:11:43;;;;;;;;;3.00;3.00;;;;;;;;5070879;28;9635;-72
2023/09/24 09:14:11;;;;;;;;;4.25;4.25;;;;;;;;5070164;28;8852;-74
2023/09/24 09:16:57;;;;;;;;;1.25;1.25;;;;;;;;5069322;28;8979;-73
2023/09/24 09:19:24;;;;;;;;;6.00;4.00;;;;;;;;5071379;28;8860;-80
2023/09/24 09:21:52;;;;;;;;;4.00;3.00;;;;;;;;5069195;28;8924;-84
2023/09/24 09:24:22;;;;;;;;;3.25;1.75;;;;;;;;5059146;28;8849;-76
2023/09/24 09:26:58;;;;;;;;;1.75;1.75;;;;;;;;5065878;28;8826;-73
2023/09/24 09:29:27;;;;;;;;;3.00;1.00;;;;;;;;5062373;28;8852;-78
2023/09/24 09:32:04;;;;;;;;;2.20;2.20;;;;;;;;5067855;28;8823;-73
2023/09/24 09:34:32;;;;;;;;;3.20;1.80;;;;;;;;5066524;28;8860;-74
2023/09/24 09:37:17;;;;;;;;;0.60;0.60;;;;;;;;5068316;28;8908;-80
2023/09/24 09:39:45;;;;;;;;;2.00;2.00;;;;;;;;5056432;28;8883;-72
2023/09/24 09:42:20;;;;;;;;;1.20;1.00;;;;;;;;5076626;28;8854;-80
2023/09/24 09:44:50;;;;;;;;;1.00;1.00;;;;;;;;5077392;28;8874;-75
2023/09/24 09:47:19;;;;;;;;;3.00;3.00;;;;;;;;5063540;28;8867;-79
2023/09/24 09:49:55;;;;;;;;;3.40;1.20;;;;;;;;5067796;28;8836;-73
2023/09/24 09:52:23;;;;;;;;;1.80;1.80;;;;;;;;5068346;28;8866;-71
2023/09/24 09:54:52;;;;;;;;;3.00;1.00;;;;;;;;5062375;28;8848;-72
2023/09/24 09:57:22;;;;;;;;;1.80;1.80;;;;;;;;5059254;28;8848;-69
2023/09/24 09:59:50;;;;;;;;;1.00;0.80;;;;;;;;5059884;28;8856;-71
2023/09/24 10:02:17;;;;;;;;;1.00;1.00;;;;;;;;5066131;28;8831;-71
2023/09/24 10:04:45;;;;;;;;;0.80;0.80;;;;;;;;5067055;28;8864;-72
2023/09/24 10:07:12;;;;;;;;;1.40;1.00;;;;;;;;5065664;28;9672;-72
2023/09/24 10:09:40;;;;;;;;;0.60;0.60;;;;;;;;5076131;28;9736;-72
2023/09/24 10:12:08;;;;;;;;;1.00;1.00;;;;;;;;5062752;28;8832;-71
2023/09/24 10:14:39;;;;;;;;;1.00;1.00;;;;;;;;5062905;28;8876;-70
2023/09/24 10:17:24;;;;;;;;;1.00;1.00;;;;;;;;5070278;28;8844;-69
2023/09/24 10:19:53;;;;;;;;;1.00;1.00;;;;;;;;5072285;28;8864;-71
2023/09/24 10:22:27;;;;;;;;;1.60;1.60;;;;;;;;5069342;28;8856;-72
2023/09/24 10:24:55;;;;;;;;;3.40;0.80;;;;;;;;5065832;28;8939;-69
2023/09/24 10:27:26;;;;;;;;;3.00;3.00;;;;;;;;5071305;28;8837;-70
2023/09/24 10:30:08;;;;;;;;;2.00;2.00;;;;;;;;5064689;28;8852;-70
2023/09/24 10:32:46;;;;;;;;;2.40;1.80;;;;;;;;5063935;28;8804;-72
2023/09/24 10:35:14;;;;;;;;;1.60;1.60;;;;;;;;5063564;28;8856;-71
2023/09/24 10:38:00;;;;;;;;;2.60;2.60;;;;;;;;5067357;28;8925;-69
2023/09/24 10:40:28;;;;;;;;;2.00;2.00;;;;;;;;5067825;28;8856;-70
2023/09/24 10:43:17;;;;;;;;;1.40;1.00;;;;;;;;5066255;28;8831;-70
2023/09/24 10:45:48;;;;;;;;;1.40;1.00;;;;;;;;5056389;28;8835;-69
2023/09/24 10:48:16;;;;;;;;;1.00;1.00;;;;;;;;5065150;28;8833;-72
2023/09/24 10:50:44;;;;;;;;;1.00;1.00;;;;;;;;5066096;28;8867;-74
2023/09/24 10:53:12;;;;;;;;;1.00;1.00;;;;;;;;5063877;28;8866;-70
2023/09/24 10:55:43;;;;;;;;;1.80;1.00;;;;;;;;5062438;28;8840;-71
2023/09/24 10:58:13;;;;;;;;;2.00;2.00;;;;;;;;5066975;28;8844;-72
2023/09/24 11:00:41;;;;;;;;;0.00;0.00;;;;;;;;5058235;28;8769;-72
2023/09/24 11:03:12;;;;;;;;;1.00;1.00;;;;;;;;5052716;28;8873;-71
2023/09/24 11:05:44;;;;;;;;;1.80;1.80;;;;;;;;5067644;28;8845;-71
2023/09/24 11:08:13;;;;;;;;;1.00;1.00;;;;;;;;5064745;28;8872;-72
2023/09/24 11:10:42;;;;;;;;;1.40;1.40;;;;;;;;5064592;28;8832;-71
2023/09/24 11:13:09;;;;;;;;;3.20;1.60;;;;;;;;5059353;28;8852;-71
2023/09/24 11:15:39;;;;;;;;;3.60;2.00;;;;;;;;5066469;28;8852;-71
2023/09/24 11:18:07;;;;;;;;;2.00;2.00;;;;;;;;5061751;28;8973;-70
2023/09/24 11:20:36;;;;;;;;;1.20;1.00;;;;;;;;5063803;28;8965;-71
2023/09/24 11:23:05;;;;;;;;;2.00;2.00;;;;;;;;5067183;28;8926;-77
2023/09/24 11:25:35;;;;;;;;;1.00;1.00;;;;;;;;5057522;28;8840;-73
2023/09/24 11:28:04;;;;;;;;;1.20;1.20;;;;;;;;5060783;28;8837;-77
2023/09/24 11:30:41;;;;;;;;;0.60;0.60;;;;;;;;5066198;28;8780;-71
2023/09/24 11:33:16;;;;;;;;;1.40;1.40;;;;;;;;5060623;28;8860;-73
2023/09/24 11:35:45;;;;;;;;;1.00;1.00;;;;;;;;5067050;28;8849;-77
2023/09/24 11:38:12;;;;;;;;;1.00;1.00;;;;;;;;5067450;28;8975;-74
2023/09/24 11:40:50;;;;;;;;;0.40;0.40;;;;;;;;5066498;28;8883;-71
2023/09/24 11:43:19;;;;;;;;;1.00;1.00;;;;;;;;5066104;28;8991;-77
2023/09/24 11:45:47;;;;;;;;;1.60;1.60;;;;;;;;5062334;28;8875;-72
2023/09/24 11:48:16;;;;;;;;;2.60;1.00;;;;;;;;5056962;28;8883;-72
2023/09/24 11:50:46;;;;;;;;;0.80;0.80;;;;;;;;5066406;28;8872;-72
2023/09/24 11:53:14;;;;;;;;;0.80;0.80;;;;;;;;5067653;28;8871;-74
2023/09/24 11:55:42;;;;;;;;;0.80;0.80;;;;;;;;5071041;28;9768;-73
2023/09/24 11:58:09;;;;;;;;;1.00;1.00;;;;;;;;5073529;28;8994;-71
2023/09/24 12:00:38;;;;;;;;;0.80;0.80;;;;;;;;5072915;28;8788;-71
2023/09/24 12:03:06;;;;;;;;;0.80;0.80;;;;;;;;5073124;28;8870;-75
2023/09/24 12:05:35;;;;;;;;;1.80;1.80;;;;;;;;5071836;28;8887;-76
2023/09/24 12:08:05;;;;;;;;;1.20;1.20;;;;;;;;5073961;28;8871;-72
2023/09/24 12:10:38;;;;;;;;;0.20;0.20;;;;;;;;5070381;28;8853;-75
2023/09/24 12:13:05;;;;;;;;;0.80;0.80;;;;;;;;5069635;28;8931;-72
2023/09/24 12:15:33;;;;;;;;;1.20;1.00;;;;;;;;5063923;28;8882;-72
2023/09/24 12:18:03;;;;;;;;;0.80;0.80;;;;;;;;5070602;28;8872;-76
2023/09/24 12:20:31;;;;;;;;;0.00;0.00;;;;;;;;5062241;28;8844;-74
2023/09/24 12:22:59;;;;;;;;;0.80;0.80;;;;;;;;5069069;28;8891;-75
2023/09/24 12:25:29;;;;;;;;;1.20;1.00;;;;;;;;5070331;28;8991;-75
2023/09/24 12:27:56;;;;;;;;;0.20;0.20;;;;;;;;5070236;28;8843;-72
2023/09/24 12:30:25;;;;;;;;;2.00;0.80;;;;;;;;5069857;28;8780;-72
2023/09/24 12:32:52;;;;;;;;;0.20;0.20;;;;;;;;5069871;28;8875;-72
2023/09/24 12:35:19;;;;;;;;;0.80;0.80;;;;;;;;5071094;28;8895;-84
2023/09/24 12:37:47;;;;;;;;;1.20;0.20;;;;;;;;5070079;28;8841;-71
2023/09/24 12:40:14;;;;;;;;;0.60;0.60;;;;;;;;5070026;28;9626;-70
2023/09/24 12:42:43;;;;;;;;;0.20;0.20;;;;;;;;5069598;28;8893;-71
2023/09/24 12:45:12;;;;;;;;;0.20;0.20;;;;;;;;5062169;28;8873;-70
2023/09/24 12:47:40;;;;;;;;;1.00;1.00;;;;;;;;5066643;28;8902;-71
2023/09/24 12:50:09;;;;;;;;;0.60;0.60;;;;;;;;5060196;28;8947;-75
2023/09/24 12:52:44;;;;;;;;;1.00;1.00;;;;;;;;5069774;28;8848;-71
2023/09/24 12:55:12;;;;;;;;;0.80;0.80;;;;;;;;5070336;28;8840;-71
2023/09/24 12:57:43;;;;;;;;;1.20;1.20;;;;;;;;5069247;28;8990;-74
2023/09/24 13:00:14;;;;;;;;;2.00;0.00;;;;;;;;5070373;28;8967;-74
2023/09/24 13:02:42;;;;;;;;;1.40;0.80;;;;;;;;5068397;28;8879;-71
2023/09/24 13:05:12;;;;;;;;;0.80;0.80;;;;;;;;5062989;28;8884;-72
2023/09/24 13:07:42;;;;;;;;;0.00;0.00;;;;;;;;5069183;28;8820;-72
2023/09/24 13:10:10;;;;;;;;;1.20;0.80;;;;;;;;5065586;28;8957;-85
2023/09/24 13:12:39;;;;;;;;;1.60;1.60;;;;;;;;5057742;28;8957;-71
2023/09/24 13:15:09;;;;;;;;;0.40;0.40;;;;;;;;5073344;28;8925;-72
2023/09/24 13:17:39;;;;;;;;;1.40;1.40;;;;;;;;5069855;28;8859;-76
2023/09/24 13:20:11;;;;;;;;;1.00;1.00;;;;;;;;5066507;28;8904;-73
2023/09/24 13:22:38;;;;;;;;;1.00;1.00;;;;;;;;5056915;28;8888;-72
2023/09/24 13:25:06;;;;;;;;;0.80;0.20;;;;;;;;5065327;28;8877;-73
2023/09/24 13:27:33;;;;;;;;;0.40;0.40;;;;;;;;5060033;28;9712;-74
2023/09/24 13:30:00;;;;;;;;;1.40;1.40;;;;;;;;5066687;28;8868;-72
2023/09/24 13:32:29;;;;;;;;;1.80;0.00;;;;;;;;5068800;28;9706;-73
2023/09/24 13:34:56;;;;;;;;;0.00;0.00;;;;;;;;5055572;28;8843;-73
2023/09/24 13:37:23;;;;;;;;;0.60;0.60;;;;;;;;5068225;28;8854;-72
2023/09/24 13:39:51;;;;;;;;;0.60;0.60;;;;;;;;5070478;28;8833;-72
2023/09/24 13:42:18;;;;;;;;;0.00;0.00;;;;;;;;5071651;28;8852;-74
2023/09/24 13:44:47;;;;;;;;;0.00;0.00;;;;;;;;5084295;28;8860;-70
2023/09/24 13:47:16;;;;;;;;;0.80;0.20;;;;;;;;5084984;28;8848;-72
2023/09/24 13:49:45;;;;;;;;;0.00;0.00;;;;;;;;5064776;28;8852;-72
2023/09/24 13:52:12;;;;;;;;;0.20;0.20;;;;;;;;5069279;28;8898;-83
2023/09/24 13:54:42;;;;;;;;;0.20;0.20;;;;;;;;5068493;28;8829;-80
2023/09/24 13:57:11;;;;;;;;;0.80;0.80;;;;;;;;5063795;28;8967;-75
2023/09/24 13:59:38;;;;;;;;;0.40;0.40;;;;;;;;5067117;28;8856;-75
2023/09/24 14:02:08;;;;;;;;;0.20;0.00;;;;;;;;5062382;28;8804;-73
2023/09/24 14:04:36;;;;;;;;;1.00;0.20;;;;;;;;5067407;28;8903;-75
2023/09/24 14:07:07;;;;;;;;;1.00;0.80;;;;;;;;5060242;28;8872;-75
2023/09/24 14:12:21;;;;;;;;;1.60;0.00;;;;;;;;5066890;28;8824;-72
2023/09/24 14:14:52;;;;;;;;;0.40;0.40;;;;;;;;5065368;28;8828;-75
2023/09/24 14:17:20;;;;;;;;;0.60;0.00;;;;;;;;5067195;28;8848;-74
2023/09/24 14:19:47;;;;;;;;;0.20;0.20;;;;;;;;5063878;28;8924;-76
2023/09/24 14:22:20;;;;;;;;;1.00;1.00;;;;;;;;5055843;28;8853;-76
2023/09/24 14:24:47;;;;;;;;;0.00;0.00;;;;;;;;5058032;28;8843;-75
2023/09/24 14:27:14;;;;;;;;;0.40;0.00;;;;;;;;5064059;28;8844;-74
2023/09/24 14:29:41;;;;;;;;;0.80;0.80;;;;;;;;5067561;28;8888;-73
2023/09/24 14:32:09;;;;;;;;;0.00;0.00;;;;;;;;5068225;28;8805;-72
2023/09/24 14:34:36;;;;;;;;;1.40;0.20;;;;;;;;5066309;28;8851;-74
2023/09/24 14:37:03;;;;;;;;;2.00;1.00;;;;;;;;5067387;28;8885;-72
2023/09/24 14:39:32;;;;;;;;;0.00;0.00;;;;;;;;5067744;28;8859;-73
2023/09/24 14:41:59;;;;;;;;;0.20;0.20;;;;;;;;5066605;28;8860;-71
2023/09/24 14:44:31;;;;;;;;;0.00;0.00;;;;;;;;5067364;28;8892;-73
2023/09/24 14:46:59;;;;;;;;;0.00;0.00;;;;;;;;5067647;28;8941;-71
2023/09/24 14:49:27;;;;;;;;;0.40;0.00;;;;;;;;5065911;28;8844;-72
2023/09/24 14:51:54;;;;;;;;;0.00;0.00;;;;;;;;5061261;28;8881;-72
2023/09/24 14:54:21;;;;;;;;;0.00;0.00;;;;;;;;5062853;28;8836;-72
2023/09/24 14:56:50;;;;;;;;;0.00;0.00;;;;;;;;5056773;28;8880;-72
2023/09/24 14:59:17;;;;;;;;;0.00;0.00;;;;;;;;5066263;28;8841;-76
2023/09/24 15:01:44;;;;;;;;;0.00;0.00;;;;;;;;5066974;28;8873;-70
2023/09/24 15:04:11;;;;;;;;;0.20;0.20;;;;;;;;5060269;28;8874;-70
2023/09/24 15:06:41;;;;;;;;;0.00;0.00;;;;;;;;5073747;28;8873;-74